sensor_id;sensor_type;location;lat;lon;timestamp;pressure;altitude;pressure_sealevel;temperature;humidity
61682;BME280;47577;43.610;25.010;2023-03-26T00:01:20;99770.16;;;11.37;89.15
61682;BME280;47577;43.610;25.010;2023-03-26T00:03:47;99782.53;;;11.19;90.97
61682;BME280;47577;43.610;25.010;2023-03-26T00:06:18;99772.09;;;11.14;91.85
61682;BME280;47577;43.610;25.010;2023-03-26T00:08:45;99780.28;;;11.09;92.45
61682;BME280;47577;43.610;25.010;2023-03-26T00:11:12;99794.69;;;11.05;93.26
61682;BME280;47577;43.610;25.010;2023-03-26T00:13:38;99792.41;;;10.96;93.15
61682;BME280;47577;43.610;25.010;2023-03-26T00:16:05;99804.22;;;10.90;94.47
61682;BME280;47577;43.610;25.010;2023-03-26T00:18:32;99805.38;;;11.04;93.86
61682;BME280;47577;43.610;25.010;2023-03-26T00:21:00;99801.13;;;11.00;94.28
61682;BME280;47577;43.610;25.010;2023-03-26T00:23:26;99804.53;;;11.03;93.80
61682;BME280;47577;43.610;25.010;2023-03-26T00:25:53;99823.03;;;10.86;94.51
61682;BME280;47577;43.610;25.010;2023-03-26T00:28:18;99818.50;;;10.88;95.64
61682;BME280;47577;43.610;25.010;2023-03-26T00:30:47;99812.41;;;10.86;95.14
61682;BME280;47577;43.610;25.010;2023-03-26T00:33:13;99817.66;;;10.87;96.28
61682;BME280;47577;43.610;25.010;2023-03-26T00:35:41;99816.75;;;10.87;96.93
61682;BME280;47577;43.610;25.010;2023-03-26T00:38:14;99807.00;;;10.87;97.50
61682;BME280;47577;43.610;25.010;2023-03-26T00:40:40;99809.66;;;10.87;97.36
61682;BME280;47577;43.610;25.010;2023-03-26T00:43:12;99807.94;;;10.86;97.87
61682;BME280;47577;43.610;25.010;2023-03-26T00:45:48;99790.91;;;10.90;98.48
61682;BME280;47577;43.610;25.010;2023-03-26T00:48:14;99792.41;;;10.96;97.21
61682;BME280;47577;43.610;25.010;2023-03-26T00:50:40;99787.81;;;11.00;96.89
61682;BME280;47577;43.610;25.010;2023-03-26T00:53:07;99797.13;;;11.10;96.83
61682;BME280;47577;43.610;25.010;2023-03-26T00:55:33;99794.16;;;10.97;97.16
61682;BME280;47577;43.610;25.010;2023-03-26T00:58:02;99793.50;;;10.92;97.49
61682;BME280;47577;43.610;25.010;2023-03-26T01:00:33;99779.84;;;11.00;96.92
61682;BME280;47577;43.610;25.010;2023-03-26T01:03:02;99783.13;;;11.06;95.90
61682;BME280;47577;43.610;25.010;2023-03-26T01:08:03;99787.41;;;11.09;94.99
61682;BME280;47577;43.610;25.010;2023-03-26T01:10:38;99798.69;;;10.95;95.46
61682;BME280;47577;43.610;25.010;2023-03-26T01:13:04;99780.16;;;10.93;95.62
61682;BME280;47577;43.610;25.010;2023-03-26T01:15:32;99779.97;;;10.96;95.11
61682;BME280;47577;43.610;25.010;2023-03-26T01:18:02;99781.59;;;11.01;94.30
61682;BME280;47577;43.610;25.010;2023-03-26T01:20:29;99769.50;;;10.93;94.06
61682;BME280;47577;43.610;25.010;2023-03-26T01:22:58;99767.19;;;10.86;94.70
61682;BME280;47577;43.610;25.010;2023-03-26T01:25:29;99774.16;;;10.88;94.57
61682;BME280;47577;43.610;25.010;2023-03-26T01:27:58;99772.09;;;10.95;93.92
61682;BME280;47577;43.610;25.010;2023-03-26T01:30:33;99769.19;;;11.00;94.02
61682;BME280;47577;43.610;25.010;2023-03-26T01:33:05;99770.34;;;10.94;94.71
61682;BME280;47577;43.610;25.010;2023-03-26T01:38:22;99767.25;;;10.84;95.18
61682;BME280;47577;43.610;25.010;2023-03-26T01:40:57;99785.16;;;10.81;96.03
61682;BME280;47577;43.610;25.010;2023-03-26T01:43:30;99789.78;;;10.75;95.55
61682;BME280;47577;43.610;25.010;2023-03-26T01:45:59;99779.50;;;10.68;97.28
61682;BME280;47577;43.610;25.010;2023-03-26T01:48:29;99787.06;;;10.77;96.68
61682;BME280;47577;43.610;25.010;2023-03-26T01:50:55;99797.69;;;10.77;96.24
61682;BME280;47577;43.610;25.010;2023-03-26T01:53:25;99802.47;;;10.69;97.14
61682;BME280;47577;43.610;25.010;2023-03-26T02:01:36;99811.53;;;10.65;99.02
61682;BME280;47577;43.610;25.010;2023-03-26T02:04:15;99804.22;;;10.70;97.62
61682;BME280;47577;43.610;25.010;2023-03-26T02:07:09;99799.91;;;10.67;98.03
61682;BME280;47577;43.610;25.010;2023-03-26T02:09:44;99802.47;;;10.69;98.33
61682;BME280;47577;43.610;25.010;2023-03-26T02:12:15;99807.00;;;10.67;98.90
61682;BME280;47577;43.610;25.010;2023-03-26T02:14:41;99815.13;;;10.64;98.30
61682;BME280;47577;43.610;25.010;2023-03-26T02:17:07;99810.81;;;10.61;98.80
61682;BME280;47577;43.610;25.010;2023-03-26T02:19:34;99808.88;;;10.65;98.09
61682;BME280;47577;43.610;25.010;2023-03-26T02:21:59;99802.91;;;10.59;98.28
61682;BME280;47577;43.610;25.010;2023-03-26T02:24:26;99805.50;;;10.61;97.87
61682;BME280;47577;43.610;25.010;2023-03-26T02:26:51;99801.22;;;10.57;97.54
61682;BME280;47577;43.610;25.010;2023-03-26T02:29:17;99800.38;;;10.56;97.20
61682;BME280;47577;43.610;25.010;2023-03-26T02:31:44;99802.38;;;10.51;97.03
61682;BME280;47577;43.610;25.010;2023-03-26T02:34:11;99793.38;;;10.54;97.60
61682;BME280;47577;43.610;25.010;2023-03-26T02:36:40;99789.94;;;10.52;96.65
61682;BME280;47577;43.610;25.010;2023-03-26T02:39:10;99795.56;;;10.44;97.52
61682;BME280;47577;43.610;25.010;2023-03-26T02:41:36;99791.13;;;10.45;97.35
61682;BME280;47577;43.610;25.010;2023-03-26T02:44:03;99795.72;;;10.41;97.91
61682;BME280;47577;43.610;25.010;2023-03-26T02:46:31;99802.03;;;10.38;97.63
61682;BME280;47577;43.610;25.010;2023-03-26T02:48:56;99801.22;;;10.36;97.93
61682;BME280;47577;43.610;25.010;2023-03-26T02:51:22;99794.34;;;10.31;97.38
61682;BME280;47577;43.610;25.010;2023-03-26T02:53:49;99802.28;;;10.32;96.36
61682;BME280;47577;43.610;25.010;2023-03-26T02:56:15;99800.59;;;10.30;96.32
61682;BME280;47577;43.610;25.010;2023-03-26T02:58:40;99793.16;;;10.17;96.90
61682;BME280;47577;43.610;25.010;2023-03-26T03:01:06;99799.19;;;10.21;96.29
61682;BME280;47577;43.610;25.010;2023-03-26T03:03:31;99796.34;;;10.25;95.55
61682;BME280;47577;43.610;25.010;2023-03-26T03:05:59;99794.31;;;10.10;96.28
61682;BME280;47577;43.610;25.010;2023-03-26T03:08:25;99799.31;;;10.18;94.32
61682;BME280;47577;43.610;25.010;2023-03-26T03:10:59;99807.59;;;10.10;94.34
61682;BME280;47577;43.610;25.010;2023-03-26T03:13:25;99797.75;;;10.12;93.52
61682;BME280;47577;43.610;25.010;2023-03-26T03:15:51;99804.75;;;10.15;92.72
61682;BME280;47577;43.610;25.010;2023-03-26T03:18:16;99801.06;;;10.19;92.54
61682;BME280;47577;43.610;25.010;2023-03-26T03:20:45;99808.13;;;10.18;91.57
61682;BME280;47577;43.610;25.010;2023-03-26T03:23:11;99819.97;;;10.11;90.50
61682;BME280;47577;43.610;25.010;2023-03-26T03:25:36;99803.66;;;10.20;90.69
61682;BME280;47577;43.610;25.010;2023-03-26T03:28:05;99808.53;;;10.09;91.33
61682;BME280;47577;43.610;25.010;2023-03-26T03:30:31;99817.19;;;10.14;89.27
61682;BME280;47577;43.610;25.010;2023-03-26T03:32:56;99820.88;;;10.10;89.68
61682;BME280;47577;43.610;25.010;2023-03-26T03:35:25;99816.41;;;10.11;90.11
61682;BME280;47577;43.610;25.010;2023-03-26T03:37:52;99826.56;;;10.01;90.03
61682;BME280;47577;43.610;25.010;2023-03-26T03:40:17;99813.84;;;10.09;89.82
61682;BME280;47577;43.610;25.010;2023-03-26T03:42:44;99807.84;;;10.04;88.80
61682;BME280;47577;43.610;25.010;2023-03-26T03:45:11;99803.34;;;10.06;88.47
61682;BME280;47577;43.610;25.010;2023-03-26T03:47:36;99809.41;;;10.10;89.93
61682;BME280;47577;43.610;25.010;2023-03-26T03:50:02;99811.38;;;10.04;89.52
61682;BME280;47577;43.610;25.010;2023-03-26T03:52:28;99808.91;;;10.00;90.23
61682;BME280;47577;43.610;25.010;2023-03-26T03:54:55;99812.22;;;10.05;90.31
61682;BME280;47577;43.610;25.010;2023-03-26T03:57:27;99821.31;;;9.99;88.52
61682;BME280;47577;43.610;25.010;2023-03-26T03:59:53;99813.97;;;10.06;89.31
61682;BME280;47577;43.610;25.010;2023-03-26T04:02:22;99819.22;;;10.07;89.28
61682;BME280;47577;43.610;25.010;2023-03-26T04:04:55;99820.31;;;10.02;87.82
61682;BME280;47577;43.610;25.010;2023-03-26T04:07:22;99826.63;;;9.99;86.93
61682;BME280;47577;43.610;25.010;2023-03-26T04:09:48;99815.72;;;9.85;87.67
61682;BME280;47577;43.610;25.010;2023-03-26T04:12:13;99833.91;;;9.94;85.77
61682;BME280;47577;43.610;25.010;2023-03-26T04:14:39;99823.16;;;9.97;85.02
61682;BME280;47577;43.610;25.010;2023-03-26T04:17:05;99818.84;;;9.95;85.20
61682;BME280;47577;43.610;25.010;2023-03-26T04:19:30;99822.44;;;9.94;84.88
61682;BME280;47577;43.610;25.010;2023-03-26T04:21:56;99825.75;;;9.99;83.82
61682;BME280;47577;43.610;25.010;2023-03-26T04:24:27;99819.84;;;9.92;84.57
61682;BME280;47577;43.610;25.010;2023-03-26T04:26:52;99823.19;;;9.75;85.09
61682;BME280;47577;43.610;25.010;2023-03-26T04:29:19;99834.97;;;9.90;83.76
61682;BME280;47577;43.610;25.010;2023-03-26T04:31:48;99838.91;;;9.80;82.17
61682;BME280;47577;43.610;25.010;2023-03-26T04:34:24;99839.78;;;9.80;84.29
61682;BME280;47577;43.610;25.010;2023-03-26T04:36:50;99841.06;;;9.70;84.32
61682;BME280;47577;43.610;25.010;2023-03-26T04:39:18;99851.25;;;9.81;83.84
61682;BME280;47577;43.610;25.010;2023-03-26T04:41:46;99856.63;;;9.79;81.79
61682;BME280;47577;43.610;25.010;2023-03-26T04:44:12;99877.25;;;9.73;82.79
61682;BME280;47577;43.610;25.010;2023-03-26T04:46:41;99871.38;;;9.64;83.31
61682;BME280;47577;43.610;25.010;2023-03-26T04:49:08;99867.72;;;9.67;83.46
61682;BME280;47577;43.610;25.010;2023-03-26T04:51:37;99885.44;;;9.66;83.01
61682;BME280;47577;43.610;25.010;2023-03-26T04:54:03;99875.75;;;9.65;83.34
61682;BME280;47577;43.610;25.010;2023-03-26T04:56:33;99891.97;;;9.58;82.51
61682;BME280;47577;43.610;25.010;2023-03-26T04:59:02;99897.28;;;9.58;83.48
61682;BME280;47577;43.610;25.010;2023-03-26T05:01:28;99904.25;;;9.60;81.49
61682;BME280;47577;43.610;25.010;2023-03-26T05:03:55;99904.72;;;9.48;83.69
61682;BME280;47577;43.610;25.010;2023-03-26T05:06:23;99903.44;;;9.58;81.41
61682;BME280;47577;43.610;25.010;2023-03-26T05:08:50;99904.66;;;9.49;82.50
61682;BME280;47577;43.610;25.010;2023-03-26T05:11:18;99907.16;;;9.54;82.21
61682;BME280;47577;43.610;25.010;2023-03-26T05:13:44;99925.97;;;9.48;82.38
61682;BME280;47577;43.610;25.010;2023-03-26T05:16:11;99922.72;;;9.40;82.69
61682;BME280;47577;43.610;25.010;2023-03-26T05:18:36;99924.97;;;9.50;82.21
61682;BME280;47577;43.610;25.010;2023-03-26T05:21:02;99916.16;;;9.25;82.35
61682;BME280;47577;43.610;25.010;2023-03-26T05:23:28;99921.94;;;9.36;82.30
61682;BME280;47577;43.610;25.010;2023-03-26T05:25:54;99933.50;;;9.35;80.68
61682;BME280;47577;43.610;25.010;2023-03-26T05:28:20;99933.91;;;9.23;83.17
61682;BME280;47577;43.610;25.010;2023-03-26T05:30:49;99919.69;;;9.25;83.26
61682;BME280;47577;43.610;25.010;2023-03-26T05:33:17;99919.59;;;9.28;82.47
61682;BME280;47577;43.610;25.010;2023-03-26T05:35:43;99925.59;;;9.33;80.97
61682;BME280;47577;43.610;25.010;2023-03-26T05:38:09;99935.03;;;9.41;82.42
61682;BME280;47577;43.610;25.010;2023-03-26T05:40:35;99937.16;;;9.56;81.88
61682;BME280;47577;43.610;25.010;2023-03-26T05:43:00;99937.13;;;9.80;80.34
61682;BME280;47577;43.610;25.010;2023-03-26T05:45:26;99950.13;;;9.87;80.92
61682;BME280;47577;43.610;25.010;2023-03-26T05:47:52;99942.63;;;9.99;78.70
61682;BME280;47577;43.610;25.010;2023-03-26T05:50:19;99958.09;;;10.11;77.91
61682;BME280;47577;43.610;25.010;2023-03-26T05:52:44;99956.22;;;10.13;79.09
61682;BME280;47577;43.610;25.010;2023-03-26T05:55:13;99951.38;;;10.24;78.55
61682;BME280;47577;43.610;25.010;2023-03-26T05:57:39;99960.59;;;10.38;79.53
61682;BME280;47577;43.610;25.010;2023-03-26T06:00:05;99934.41;;;10.51;77.91
61682;BME280;47577;43.610;25.010;2023-03-26T06:02:33;99959.00;;;10.34;79.01
61682;BME280;47577;43.610;25.010;2023-03-26T06:04:59;99953.56;;;10.59;76.89
61682;BME280;47577;43.610;25.010;2023-03-26T06:07:25;99943.69;;;10.40;76.58
61682;BME280;47577;43.610;25.010;2023-03-26T06:09:51;99946.66;;;10.55;76.63
61682;BME280;47577;43.610;25.010;2023-03-26T06:12:17;99959.16;;;10.73;76.45
61682;BME280;47577;43.610;25.010;2023-03-26T06:14:42;99952.16;;;10.72;76.28
61682;BME280;47577;43.610;25.010;2023-03-26T06:17:08;99963.81;;;10.90;75.49
61682;BME280;47577;43.610;25.010;2023-03-26T06:19:34;99959.34;;;10.91;75.24
61682;BME280;47577;43.610;25.010;2023-03-26T06:22:00;99967.91;;;10.97;74.15
61682;BME280;47577;43.610;25.010;2023-03-26T06:24:25;99962.41;;;11.02;76.85
61682;BME280;47577;43.610;25.010;2023-03-26T06:26:51;99961.97;;;11.13;74.90
61682;BME280;47577;43.610;25.010;2023-03-26T06:29:16;99968.59;;;11.23;75.04
61682;BME280;47577;43.610;25.010;2023-03-26T06:31:42;99967.47;;;11.29;73.40
61682;BME280;47577;43.610;25.010;2023-03-26T06:34:08;99968.94;;;11.36;71.97
61682;BME280;47577;43.610;25.010;2023-03-26T06:36:33;99967.63;;;11.26;72.66
61682;BME280;47577;43.610;25.010;2023-03-26T06:38:59;99970.88;;;11.32;73.98
61682;BME280;47577;43.610;25.010;2023-03-26T06:41:25;99962.97;;;11.50;72.40
61682;BME280;47577;43.610;25.010;2023-03-26T06:43:51;99966.53;;;11.50;71.66
61682;BME280;47577;43.610;25.010;2023-03-26T06:46:17;99984.22;;;11.51;71.87
61682;BME280;47577;43.610;25.010;2023-03-26T06:48:42;99974.19;;;11.58;70.85
61682;BME280;47577;43.610;25.010;2023-03-26T06:51:08;99975.44;;;11.49;70.93
61682;BME280;47577;43.610;25.010;2023-03-26T06:53:34;99982.31;;;11.55;70.80
61682;BME280;47577;43.610;25.010;2023-03-26T06:55:59;99989.78;;;11.66;71.86
61682;BME280;47577;43.610;25.010;2023-03-26T06:58:25;99983.34;;;11.71;71.81
61682;BME280;47577;43.610;25.010;2023-03-26T07:00:54;99987.88;;;11.88;70.62
61682;BME280;47577;43.610;25.010;2023-03-26T07:03:25;99971.84;;;11.90;70.69
61682;BME280;47577;43.610;25.010;2023-03-26T07:05:51;99966.19;;;11.98;70.42
61682;BME280;47577;43.610;25.010;2023-03-26T07:08:16;99973.91;;;12.04;70.01
61682;BME280;47577;43.610;25.010;2023-03-26T07:10:42;99980.16;;;12.03;71.24
61682;BME280;47577;43.610;25.010;2023-03-26T07:13:07;99986.94;;;12.10;69.86
61682;BME280;47577;43.610;25.010;2023-03-26T07:15:33;99976.88;;;12.17;68.18
61682;BME280;47577;43.610;25.010;2023-03-26T07:17:58;99967.63;;;12.24;67.18
61682;BME280;47577;43.610;25.010;2023-03-26T07:20:24;99979.22;;;12.42;67.81
61682;BME280;47577;43.610;25.010;2023-03-26T07:22:50;99982.63;;;12.63;67.52
61682;BME280;47577;43.610;25.010;2023-03-26T07:25:16;99971.25;;;12.59;67.30
61682;BME280;47577;43.610;25.010;2023-03-26T07:30:31;99994.25;;;12.62;64.53
61682;BME280;47577;43.610;25.010;2023-03-26T07:35:26;99977.25;;;12.82;65.36
61682;BME280;47577;43.610;25.010;2023-03-26T07:38:04;99991.22;;;12.87;65.29
61682;BME280;47577;43.610;25.010;2023-03-26T07:40:40;99981.91;;;12.96;64.92
61682;BME280;47577;43.610;25.010;2023-03-26T07:45:49;100004.84;;;13.17;64.31
61682;BME280;47577;43.610;25.010;2023-03-26T07:48:16;99996.75;;;13.02;65.65
61682;BME280;47577;43.610;25.010;2023-03-26T07:50:42;99997.16;;;13.11;63.96
61682;BME280;47577;43.610;25.010;2023-03-26T07:53:07;100004.66;;;13.40;64.87
61682;BME280;47577;43.610;25.010;2023-03-26T07:55:35;99998.09;;;13.28;63.58
61682;BME280;47577;43.610;25.010;2023-03-26T07:58:15;100016.63;;;13.31;62.32
61682;BME280;47577;43.610;25.010;2023-03-26T08:00:47;100021.75;;;13.70;62.29
61682;BME280;47577;43.610;25.010;2023-03-26T08:08:29;100026.72;;;13.61;60.08
61682;BME280;47577;43.610;25.010;2023-03-26T08:18:26;100021.28;;;13.62;61.04
61682;BME280;47577;43.610;25.010;2023-03-26T08:20:59;100015.28;;;13.75;61.25
61682;BME280;47577;43.610;25.010;2023-03-26T08:23:31;100006.88;;;13.65;62.34
61682;BME280;47577;43.610;25.010;2023-03-26T08:26:08;100014.88;;;13.82;61.67
61682;BME280;47577;43.610;25.010;2023-03-26T08:28:52;100001.97;;;13.90;62.73
61682;BME280;47577;43.610;25.010;2023-03-26T08:31:23;100005.84;;;14.01;62.58
61682;BME280;47577;43.610;25.010;2023-03-26T08:33:51;100027.09;;;14.20;64.17
61682;BME280;47577;43.610;25.010;2023-03-26T08:36:16;100009.25;;;14.20;62.54
61682;BME280;47577;43.610;25.010;2023-03-26T08:38:41;100022.44;;;14.23;60.25
61682;BME280;47577;43.610;25.010;2023-03-26T08:54:12;100018.66;;;14.61;56.77
61682;BME280;47577;43.610;25.010;2023-03-26T08:56:51;100004.13;;;14.81;57.08
61682;BME280;47577;43.610;25.010;2023-03-26T09:02:16;100009.97;;;14.88;56.80
61682;BME280;47577;43.610;25.010;2023-03-26T09:10:13;100001.25;;;15.45;55.44
61682;BME280;47577;43.610;25.010;2023-03-26T09:15:17;99996.84;;;15.29;54.26
61682;BME280;47577;43.610;25.010;2023-03-26T09:28:12;99985.00;;;15.48;51.09
61682;BME280;47577;43.610;25.010;2023-03-26T09:30:56;99987.88;;;15.59;50.99
61682;BME280;47577;43.610;25.010;2023-03-26T09:39:15;99959.59;;;15.84;47.48
61682;BME280;47577;43.610;25.010;2023-03-26T09:42:07;99945.31;;;15.98;50.52
61682;BME280;47577;43.610;25.010;2023-03-26T09:44:44;99958.13;;;16.21;47.06
61682;BME280;47577;43.610;25.010;2023-03-26T09:47:23;99947.88;;;16.28;45.51
61682;BME280;47577;43.610;25.010;2023-03-26T09:52:45;99954.28;;;16.25;45.07
61682;BME280;47577;43.610;25.010;2023-03-26T10:11:21;99930.72;;;16.85;44.38
61682;BME280;47577;43.610;25.010;2023-03-26T10:22:11;99934.97;;;16.48;47.12
61682;BME280;47577;43.610;25.010;2023-03-26T10:27:25;99917.00;;;16.90;44.67
61682;BME280;47577;43.610;25.010;2023-03-26T10:35:25;99904.03;;;17.09;43.77
61682;BME280;47577;43.610;25.010;2023-03-26T10:45:39;99903.19;;;16.81;42.56
61682;BME280;47577;43.610;25.010;2023-03-26T10:51:08;99886.63;;;17.15;41.98
61682;BME280;47577;43.610;25.010;2023-03-26T10:53:42;99897.78;;;17.34;42.46
61682;BME280;47577;43.610;25.010;2023-03-26T10:59:13;99875.84;;;17.02;44.64
61682;BME280;47577;43.610;25.010;2023-03-26T11:12:01;99843.75;;;17.26;43.06
61682;BME280;47577;43.610;25.010;2023-03-26T11:14:31;99847.03;;;17.55;41.10
61682;BME280;47577;43.610;25.010;2023-03-26T11:17:01;99852.44;;;17.43;41.01
61682;BME280;47577;43.610;25.010;2023-03-26T11:19:39;99845.25;;;17.43;40.47
61682;BME280;47577;43.610;25.010;2023-03-26T11:22:08;99837.19;;;17.56;42.30
61682;BME280;47577;43.610;25.010;2023-03-26T11:27:06;99824.53;;;17.82;40.55
61682;BME280;47577;43.610;25.010;2023-03-26T11:29:43;99827.44;;;17.92;40.42
61682;BME280;47577;43.610;25.010;2023-03-26T11:32:21;99853.81;;;17.74;38.75
61682;BME280;47577;43.610;25.010;2023-03-26T11:37:53;99826.00;;;17.86;38.65
61682;BME280;47577;43.610;25.010;2023-03-26T11:40:53;99836.06;;;17.59;38.27
61682;BME280;47577;43.610;25.010;2023-03-26T11:43:15;99835.69;;;17.39;37.71
61682;BME280;47577;43.610;25.010;2023-03-26T11:45:43;99822.66;;;17.46;39.07
61682;BME280;47577;43.610;25.010;2023-03-26T11:48:29;99822.03;;;17.42;37.38
61682;BME280;47577;43.610;25.010;2023-03-26T11:51:00;99834.72;;;17.53;38.91
61682;BME280;47577;43.610;25.010;2023-03-26T11:53:31;99816.97;;;17.50;37.02
61682;BME280;47577;43.610;25.010;2023-03-26T11:58:30;99830.97;;;17.93;37.00
61682;BME280;47577;43.610;25.010;2023-03-26T12:00:58;99810.16;;;17.70;35.82
61682;BME280;47577;43.610;25.010;2023-03-26T12:03:28;99814.50;;;17.84;36.57
61682;BME280;47577;43.610;25.010;2023-03-26T12:05:56;99801.06;;;17.84;38.18
61682;BME280;47577;43.610;25.010;2023-03-26T12:08:33;99826.94;;;18.11;36.04
61682;BME280;47577;43.610;25.010;2023-03-26T12:11:00;99806.16;;;18.13;35.30
61682;BME280;47577;43.610;25.010;2023-03-26T12:13:31;99812.31;;;18.02;34.53
61682;BME280;47577;43.610;25.010;2023-03-26T12:16:13;99811.19;;;17.81;35.41
61682;BME280;47577;43.610;25.010;2023-03-26T12:18:40;99799.63;;;17.67;34.66
61682;BME280;47577;43.610;25.010;2023-03-26T12:21:12;99788.34;;;17.86;36.74
61682;BME280;47577;43.610;25.010;2023-03-26T12:26:16;99780.22;;;18.12;36.06
61682;BME280;47577;43.610;25.010;2023-03-26T12:28:43;99784.50;;;17.90;35.46
61682;BME280;47577;43.610;25.010;2023-03-26T12:31:09;99782.91;;;18.12;36.79
61682;BME280;47577;43.610;25.010;2023-03-26T12:33:35;99796.00;;;18.17;33.65
61682;BME280;47577;43.610;25.010;2023-03-26T12:36:25;99765.59;;;17.92;34.92
61682;BME280;47577;43.610;25.010;2023-03-26T12:38:53;99772.56;;;18.30;34.78
61682;BME280;47577;43.610;25.010;2023-03-26T12:41:19;99767.09;;;18.07;35.14
61682;BME280;47577;43.610;25.010;2023-03-26T12:43:49;99783.00;;;18.11;35.46
61682;BME280;47577;43.610;25.010;2023-03-26T12:46:23;99777.00;;;18.07;35.76
61682;BME280;47577;43.610;25.010;2023-03-26T12:48:50;99781.16;;;18.00;34.04
61682;BME280;47577;43.610;25.010;2023-03-26T12:51:33;99762.56;;;17.97;34.86
61682;BME280;47577;43.610;25.010;2023-03-26T12:54:26;99773.16;;;18.47;35.07
61682;BME280;47577;43.610;25.010;2023-03-26T13:14:57;99765.13;;;18.69;31.66
61682;BME280;47577;43.610;25.010;2023-03-26T13:17:33;99748.63;;;18.85;32.18
61682;BME280;47577;43.610;25.010;2023-03-26T13:25:14;99765.72;;;18.26;32.01
61682;BME280;47577;43.610;25.010;2023-03-26T13:30:51;99761.69;;;18.32;30.89
61682;BME280;47577;43.610;25.010;2023-03-26T13:43:25;99753.16;;;18.38;28.93
61682;BME280;47577;43.610;25.010;2023-03-26T13:48:49;99769.03;;;18.30;26.95
61682;BME280;47577;43.610;25.010;2023-03-26T13:51:18;99758.13;;;18.55;27.94
61682;BME280;47577;43.610;25.010;2023-03-26T13:53:59;99760.06;;;18.53;28.01
61682;BME280;47577;43.610;25.010;2023-03-26T13:56:28;99755.94;;;18.72;28.32
61682;BME280;47577;43.610;25.010;2023-03-26T13:58:58;99744.28;;;19.07;29.22
61682;BME280;47577;43.610;25.010;2023-03-26T14:01:29;99754.50;;;19.47;28.52
61682;BME280;47577;43.610;25.010;2023-03-26T14:09:01;99742.31;;;19.09;28.93
61682;BME280;47577;43.610;25.010;2023-03-26T14:11:33;99734.91;;;19.45;28.99
61682;BME280;47577;43.610;25.010;2023-03-26T14:14:13;99727.06;;;19.42;28.18
61682;BME280;47577;43.610;25.010;2023-03-26T14:16:42;99739.56;;;19.54;27.01
61682;BME280;47577;43.610;25.010;2023-03-26T14:29:50;99732.13;;;18.43;29.81
61682;BME280;47577;43.610;25.010;2023-03-26T14:35:06;99726.59;;;18.33;27.95
61682;BME280;47577;43.610;25.010;2023-03-26T14:37:48;99723.75;;;18.81;26.49
61682;BME280;47577;43.610;25.010;2023-03-26T18:49:11;99754.53;;;10.91;51.32
61682;BME280;47577;43.610;25.010;2023-03-26T18:51:38;99755.50;;;10.69;52.43
61682;BME280;47577;43.610;25.010;2023-03-26T18:54:05;99755.53;;;10.49;52.09
61682;BME280;47577;43.610;25.010;2023-03-26T18:56:37;99748.25;;;10.11;53.34
61682;BME280;47577;43.610;25.010;2023-03-26T19:01:54;99742.84;;;9.70;55.86
61682;BME280;47577;43.610;25.010;2023-03-26T19:04:22;99744.31;;;9.55;56.31
61682;BME280;47577;43.610;25.010;2023-03-26T19:06:49;99739.47;;;9.44;55.20
61682;BME280;47577;43.610;25.010;2023-03-26T19:09:20;99743.03;;;9.43;56.05
61682;BME280;47577;43.610;25.010;2023-03-26T19:11:48;99743.19;;;9.39;55.93
61682;BME280;47577;43.610;25.010;2023-03-26T19:14:19;99753.13;;;9.33;55.99
61682;BME280;47577;43.610;25.010;2023-03-26T19:41:02;99734.06;;;10.53;53.52
61682;BME280;47577;43.610;25.010;2023-03-26T19:43:29;99721.50;;;10.57;52.24
61682;BME280;47577;43.610;25.010;2023-03-26T19:45:57;99719.97;;;10.51;50.61
61682;BME280;47577;43.610;25.010;2023-03-26T19:48:24;99732.06;;;10.38;50.70
61682;BME280;47577;43.610;25.010;2023-03-26T20:05:56;99710.38;;;10.87;46.93
61682;BME280;47577;43.610;25.010;2023-03-26T20:23:58;99720.91;;;11.64;46.48
61682;BME280;47577;43.610;25.010;2023-03-26T20:26:24;99708.84;;;11.57;44.46
61682;BME280;47577;43.610;25.010;2023-03-26T23:11:59;99524.56;;;8.10;60.70
61682;BME280;47577;43.610;25.010;2023-03-26T23:14:26;99517.66;;;8.06;60.63
61682;BME280;47577;43.610;25.010;2023-03-26T23:16:54;99524.63;;;8.09;59.73
61682;BME280;47577;43.610;25.010;2023-03-26T23:19:22;99520.28;;;8.06;60.86
61682;BME280;47577;43.610;25.010;2023-03-26T23:21:49;99507.34;;;7.98;60.42
61682;BME280;47577;43.610;25.010;2023-03-26T23:24:15;99504.00;;;7.93;59.91
61682;BME280;47577;43.610;25.010;2023-03-26T23:26:42;99505.91;;;7.64;60.80
61682;BME280;47577;43.610;25.010;2023-03-26T23:29:08;99499.13;;;7.82;61.61
61682;BME280;47577;43.610;25.010;2023-03-26T23:31:36;99481.22;;;7.89;63.78
61682;BME280;47577;43.610;25.010;2023-03-26T23:34:06;99503.88;;;7.96;62.90
61682;BME280;47577;43.610;25.010;2023-03-26T23:36:33;99498.69;;;7.93;62.95
61682;BME280;47577;43.610;25.010;2023-03-26T23:38:59;99493.78;;;7.84;63.95
61682;BME280;47577;43.610;25.010;2023-03-26T23:41:26;99496.53;;;7.81;63.48
61682;BME280;47577;43.610;25.010;2023-03-26T23:43:53;99484.38;;;7.75;63.69
61682;BME280;47577;43.610;25.010;2023-03-26T23:46:20;99485.47;;;7.69;62.83
61682;BME280;47577;43.610;25.010;2023-03-26T23:48:50;99488.81;;;7.75;62.71
61682;BME280;47577;43.610;25.010;2023-03-26T23:51:17;99474.84;;;7.46;62.65
61682;BME280;47577;43.610;25.010;2023-03-26T23:53:46;99474.13;;;7.66;62.51
61682;BME280;47577;43.610;25.010;2023-03-26T23:56:14;99483.69;;;7.70;64.16
61682;BME280;47577;43.610;25.010;2023-03-26T23:58:41;99467.19;;;7.38;63.90
